02:15
Airports
Links
Donate
Help keep this website running!
PayPal
Bitcoin
METAR
KBKF 110158Z 18008KT 10SM FEW200 03/M20 A3034 RMK AO2A SLP279 T00321203
Current Weather Conditions at KBKF
VFR 01:58:00 11-12-17
Automated station
Altimeter:30.34 hg
Temp:3.2°c 37°f
Dew point:-20.3°c -4°f
Wind:8 knots, 9.2 mph, 4 m/s, from 180°
Visibility:10.0 statute miles
20000(FEW) A few
Past METAR reports
VFR 00:58:00 11-12-17
Automated station
Altimeter:30.34 hg
Temp:9.1°c 48°f
Dew point:-23.5°c -9°f
Wind:0 knots, 0 mph, 0 m/s,
Variable direction
Visibility:10.0 statute miles
20000(FEW) A few
KBKF 110058Z 00000KT 10SM FEW200 09/M23 A3034 RMK AO2A SLP270 T00911235
VFR 23:58:00 10-12-17
Automated station
Altimeter:30.34 hg
Temp:11.1°c 52°f
Dew point:-25.2°c -13°f
Wind:3 knots, 3.5 mph, 2 m/s, from 20°
Visibility:10.0 statute miles
20000(FEW) A few
KBKF 102358Z 02003KT 10SM FEW200 11/M25 A3034 RMK AO2A SLP265 T01111252 10158 20111 57004
VFR 22:58:00 10-12-17
Automated station
Altimeter:30.34 hg
Temp:14.5°c 57°f
Dew point:-24.8°c -11°f
Wind:3 knots, 3.5 mph, 2 m/s, from 350°
Visibility:10.0 statute miles
20000(FEW) A few
KBKF 102258Z 35003KT 10SM FEW200 15/M25 A3034 RMK AO2A SLP252 T01451248
VFR 21:58:00 10-12-17
Automated station
Altimeter:30.34 hg
Temp:15.2°c 59°f
Dew point:-24.3°c -11°f
Wind:4 knots, 4.6 mph, 2 m/s, from 310°
Visibility:10.0 statute miles
20000(FEW) A few
KBKF 102158Z 31004KT 10SM FEW200 15/M24 A3034 RMK AO2A SLP252 T01521243
VFR 20:58:00 10-12-17
Automated station
Altimeter:30.35 hg
Temp:15.4°c 59°f
Dew point:-24.1°c -11°f
Wind:0 knots, 0 mph, 0 m/s,
Variable direction
Visibility:10.0 statute miles
20000(FEW) A few
KBKF 102058Z 00000KT 10SM FEW200 15/M24 A3035 RMK AO2A SLP255 T01541241 57018
TAF
TAF KBKF 110101Z 1101/1207 24009KT 9999 FEW220 QNH3030INS BECMG 1117/1118 03009KT 9999 SKC QNH3032INS BECMG 1205/1206 21009KT 9999 FEW250 QNH3038INS TX12/1121Z TNM02/1112Z
Forecast at KBKF
01:00 11-12-17 to 17:00 11-12-17
Wind:9 Knots from 240°
Visibility:6.21 statute miles
22000FEW A few
BECMG 17:00 11-12-17 to 05:00 12-12-17
Wind:9 Knots from 30°
Visibility:6.21 statute miles
SKC Clear
BECMG 05:00 12-12-17 to 07:00 12-12-17
Wind:9 Knots from 210°
Visibility:6.21 statute miles
25000FEW A few